Time;durP1;ratioP1;P1;durP2;ratioP2;P2;SDS_P1;SDS_P2;PMS_P1;PMS_P2;Temp;Humidity;BMP_temperature;BMP_pressure;BME280_temperature;BME280_humidity;BME280_pressure;Samples;Min_cycle;Max_cycle;Signal;HPM_P1;HPM_P2
2023/06/05 00:00:28;;;;;;;;;;;13.60;99.90;;;;;;5032718;28;19921;-84
2023/06/05 00:02:54;;;;;;;;;;;13.50;99.90;;;;;;5032977;28;20008;-84
2023/06/05 00:05:19;;;;;;;;;;;13.40;99.90;;;;;;5032858;28;19947;-84
2023/06/05 00:07:45;;;;;;;;;;;13.40;99.90;;;;;;5033009;28;19916;-84
2023/06/05 00:10:11;;;;;;;;;;;13.40;99.90;;;;;;5032797;28;19971;-84
2023/06/05 00:12:36;;;;;;;;;;;13.40;99.90;;;;;;5049991;28;19905;-84
2023/06/05 00:15:03;;;;;;;;;;;13.40;99.90;;;;;;5036657;28;20039;-84
2023/06/05 00:17:30;;;;;;;;;;;13.50;99.90;;;;;;5037884;28;19909;-84
2023/06/05 00:19:58;;;;;;;;;;;13.50;99.90;;;;;;5053076;28;19940;-83
2023/06/05 00:22:24;;;;;;;;;;;13.50;99.90;;;;;;5037040;28;20448;-83
2023/06/05 00:24:50;;;;;;;;;;;13.60;99.90;;;;;;5036753;28;20340;-84
2023/06/05 00:27:15;;;;;;;;;;;13.50;99.90;;;;;;5037071;28;19917;-84
2023/06/05 00:29:41;;;;;;;;;;;13.40;99.90;;;;;;5036775;28;20285;-84
2023/06/05 00:32:06;;;;;;;;;;;13.40;99.90;;;;;;5036550;28;19913;-84
2023/06/05 00:34:32;;;;;;;;;;;13.20;99.90;;;;;;5037661;28;19909;-84
2023/06/05 00:36:57;;;;;;;;;;;13.20;99.90;;;;;;5036432;28;19913;-84
2023/06/05 00:39:23;;;;;;;;;;;13.10;99.90;;;;;;5032711;28;19913;-84
2023/06/05 00:41:49;;;;;;;;;;;13.00;99.90;;;;;;5032892;28;19956;-84
2023/06/05 00:44:15;;;;;;;;;;;13.00;99.90;;;;;;5017552;28;19905;-84
2023/06/05 00:46:40;;;;;;;;;;;13.10;99.90;;;;;;5017700;28;19928;-84
2023/06/05 00:49:08;;;;;;;;;;;13.10;99.90;;;;;;5032336;28;20369;-84
2023/06/05 00:51:33;;;;;;;;;;;13.10;99.90;;;;;;5032817;28;19912;-84
2023/06/05 00:53:59;;;;;;;;;;;13.10;99.90;;;;;;5017293;28;19909;-84
2023/06/05 00:56:25;;;;;;;;;;;13.10;99.90;;;;;;5032646;28;19916;-84
2023/06/05 00:58:52;;;;;;;;;;;13.10;99.90;;;;;;5017127;28;19996;-84
2023/06/05 01:01:20;;;;;;;;;;;13.00;99.90;;;;;;5032348;28;20004;-84
2023/06/05 01:03:49;;;;;;;;;;;13.00;99.90;;;;;;5032199;28;19976;-84
2023/06/05 01:06:17;;;;;;;;;;;13.00;99.90;;;;;;5032439;28;19914;-84
2023/06/05 01:08:46;;;;;;;;;;;12.90;99.90;;;;;;5032018;28;19917;-84
2023/06/05 01:11:12;;;;;;;;;;;13.00;99.90;;;;;;5052105;28;19966;-84
2023/06/05 01:13:40;;;;;;;;;;;13.00;99.90;;;;;;5051913;28;19905;-83
2023/06/05 01:16:09;;;;;;;;;;;13.10;99.90;;;;;;5036683;28;19944;-84
2023/06/05 01:18:40;;;;;;;;;;;13.00;99.90;;;;;;5035876;28;19935;-83
2023/06/05 01:21:13;;;;;;;;;;;13.00;99.90;;;;;;5036650;28;19905;-83
2023/06/05 01:23:43;;;;;;;;;;;13.00;99.90;;;;;;5036840;28;19905;-84
2023/06/05 01:26:11;;;;;;;;;;;13.00;99.90;;;;;;5034783;28;19913;-83
2023/06/05 01:28:37;;;;;;;;;;;12.90;99.90;;;;;;5036564;28;19976;-84
2023/06/05 01:31:05;;;;;;;;;;;12.90;99.90;;;;;;5035420;28;19951;-83
2023/06/05 01:33:31;;;;;;;;;;;12.90;99.90;;;;;;5035527;28;20349;-84
2023/06/05 01:36:04;;;;;;;;;;;12.90;99.90;;;;;;5052044;28;19958;-84
2023/06/05 01:38:32;;;;;;;;;;;12.80;99.90;;;;;;5036476;28;19909;-84
2023/06/05 01:40:58;;;;;;;;;;;12.70;99.90;;;;;;5030402;28;20420;-84
2023/06/05 01:43:23;;;;;;;;;;;12.70;99.90;;;;;;5011228;28;19910;-84
2023/06/05 01:45:50;;;;;;;;;;;12.70;99.90;;;;;;5028028;28;20384;-84
2023/06/05 01:48:16;;;;;;;;;;;12.70;99.90;;;;;;4996397;28;20378;-84
2023/06/05 01:50:42;;;;;;;;;;;12.70;99.90;;;;;;5011160;28;19910;-83
2023/06/05 01:53:07;;;;;;;;;;;12.80;99.90;;;;;;4996082;28;19912;-84
2023/06/05 01:55:33;;;;;;;;;;;12.90;99.90;;;;;;4994865;28;19906;-83
2023/06/05 01:57:59;;;;;;;;;;;12.90;99.90;;;;;;4994751;28;20412;-84
2023/06/05 02:00:25;;;;;;;;;;;12.90;99.90;;;;;;5027677;28;20000;-84
2023/06/05 02:02:51;;;;;;;;;;;12.90;99.90;;;;;;5027859;28;19909;-84
2023/06/05 02:05:17;;;;;;;;;;;12.80;99.90;;;;;;5011084;28;19910;-83
2023/06/05 02:07:48;;;;;;;;;;;12.80;99.90;;;;;;5027171;28;20008;-83
2023/06/05 02:10:14;;;;;;;;;;;12.80;99.90;;;;;;5042679;28;19910;-84
2023/06/05 02:12:42;;;;;;;;;;;12.80;99.90;;;;;;5034130;28;19909;-84
2023/06/05 02:15:12;;;;;;;;;;;12.80;99.90;;;;;;5050492;28;19996;-84
2023/06/05 02:17:45;;;;;;;;;;;12.80;99.90;;;;;;5035019;28;19909;-84
2023/06/05 02:20:15;;;;;;;;;;;12.80;99.90;;;;;;5050722;28;19905;-84
2023/06/05 02:22:41;;;;;;;;;;;12.90;99.90;;;;;;5033915;28;19911;-83
2023/06/05 02:25:07;;;;;;;;;;;12.90;99.90;;;;;;5048070;28;19909;-84
2023/06/05 02:27:32;;;;;;;;;;;13.00;99.90;;;;;;5033890;28;19988;-84
2023/06/05 02:29:58;;;;;;;;;;;13.00;99.90;;;;;;5033747;28;19909;-84
2023/06/05 02:32:25;;;;;;;;;;;13.00;99.90;;;;;;5050514;28;20366;-84
2023/06/05 02:34:52;;;;;;;;;;;13.00;99.90;;;;;;5033798;28;19909;-84
2023/06/05 02:37:18;;;;;;;;;;;12.90;99.90;;;;;;5050553;28;19909;-83
2023/06/05 02:39:44;;;;;;;;;;;12.90;99.90;;;;;;5027836;28;19909;-84
2023/06/05 02:42:12;;;;;;;;;;;12.80;99.90;;;;;;5030682;28;19917;-83
2023/06/05 02:44:37;;;;;;;;;;;12.80;99.90;;;;;;5030134;28;19992;-84
2023/06/05 02:47:03;;;;;;;;;;;12.90;99.90;;;;;;5030370;28;19941;-84
2023/06/05 02:49:29;;;;;;;;;;;12.90;99.90;;;;;;5014860;28;19960;-83
2023/06/05 02:51:55;;;;;;;;;;;13.00;99.90;;;;;;5030185;28;19972;-84
2023/06/05 02:54:21;;;;;;;;;;;13.00;99.90;;;;;;5033600;28;19932;-84
2023/06/05 02:56:47;;;;;;;;;;;13.00;99.90;;;;;;5033132;28;19910;-84
2023/06/05 02:59:12;;;;;;;;;;;13.00;99.90;;;;;;5031058;28;19916;-84
2023/06/05 03:01:43;;;;;;;;;;;13.00;99.90;;;;;;5030120;28;19909;-84
2023/06/05 03:04:09;;;;;;;;;;;12.90;99.90;;;;;;4996567;28;19936;-84
2023/06/05 03:06:35;;;;;;;;;;;13.00;99.90;;;;;;5030071;28;20272;-83
2023/06/05 03:09:01;;;;;;;;;;;12.90;99.90;;;;;;5015985;28;19905;-84
2023/06/05 03:11:26;;;;;;;;;;;12.90;99.90;;;;;;5014807;28;20040;-84
2023/06/05 03:13:52;;;;;;;;;;;12.80;99.90;;;;;;5013862;28;19920;-84
2023/06/05 03:16:18;;;;;;;;;;;12.70;99.90;;;;;;5017157;28;19910;-84
2023/06/05 03:18:44;;;;;;;;;;;12.60;99.90;;;;;;5008248;28;19917;-83
2023/06/05 03:21:10;;;;;;;;;;;12.50;99.90;;;;;;4997405;28;20051;-83
2023/06/05 03:23:35;;;;;;;;;;;12.50;99.90;;;;;;5013853;28;19917;-84
2023/06/05 03:26:02;;;;;;;;;;;12.50;99.90;;;;;;5013872;28;19917;-83
2023/06/05 03:28:28;;;;;;;;;;;12.40;99.90;;;;;;4996808;28;25060;-84
2023/06/05 03:30:54;;;;;;;;;;;12.50;99.90;;;;;;4994518;28;19933;-84
2023/06/05 03:33:19;;;;;;;;;;;12.50;99.90;;;;;;4995019;28;19906;-84
2023/06/05 03:35:49;;;;;;;;;;;12.60;99.90;;;;;;4993350;28;19917;-83
2023/06/05 03:38:14;;;;;;;;;;;12.70;99.90;;;;;;4994433;28;19913;-83
2023/06/05 03:40:40;;;;;;;;;;;12.70;99.90;;;;;;5041016;28;20388;-84
2023/06/05 03:43:05;;;;;;;;;;;12.80;99.90;;;;;;5032686;28;20276;-84
2023/06/05 03:45:32;;;;;;;;;;;12.80;99.90;;;;;;5033378;28;19905;-84
2023/06/05 03:47:59;;;;;;;;;;;12.80;99.90;;;;;;5032324;28;19915;-84
2023/06/05 03:50:28;;;;;;;;;;;12.80;99.90;;;;;;5036796;28;19909;-83
2023/06/05 03:52:54;;;;;;;;;;;12.90;99.90;;;;;;5036634;28;19912;-84
2023/06/05 03:55:20;;;;;;;;;;;12.90;99.90;;;;;;5013039;28;19914;-84
2023/06/05 03:57:48;;;;;;;;;;;12.80;99.90;;;;;;4995853;28;19918;-83
2023/06/05 04:00:17;;;;;;;;;;;12.70;99.90;;;;;;5029876;28;19939;-83
2023/06/05 04:02:42;;;;;;;;;;;12.70;99.90;;;;;;5002085;28;19928;-83
2023/06/05 04:05:11;;;;;;;;;;;12.50;99.90;;;;;;5031606;28;19909;-81
2023/06/05 04:07:37;;;;;;;;;;;12.50;99.90;;;;;;5001951;28;19920;-81
2023/06/05 04:10:03;;;;;;;;;;;12.40;99.90;;;;;;5016731;28;19909;-80
2023/06/05 04:12:28;;;;;;;;;;;12.30;99.90;;;;;;5013784;28;24062;-80
2023/06/05 04:14:54;;;;;;;;;;;12.30;99.90;;;;;;5013495;28;19916;-80
2023/06/05 04:17:19;;;;;;;;;;;12.30;99.90;;;;;;5007054;28;20433;-80
2023/06/05 04:19:45;;;;;;;;;;;12.30;99.90;;;;;;4997032;28;20282;-81
2023/06/05 04:22:11;;;;;;;;;;;12.30;99.90;;;;;;4998803;28;19914;-81
2023/06/05 04:24:39;;;;;;;;;;;12.30;99.90;;;;;;4997071;28;19914;-81
2023/06/05 04:27:04;;;;;;;;;;;12.40;99.90;;;;;;5011944;28;19913;-81
2023/06/05 04:29:32;;;;;;;;;;;12.40;99.90;;;;;;5031309;28;19932;-81
2023/06/05 04:31:57;;;;;;;;;;;12.40;99.90;;;;;;5012395;28;19913;-81
2023/06/05 04:34:23;;;;;;;;;;;12.50;99.90;;;;;;5013099;28;20266;-82
2023/06/05 04:36:49;;;;;;;;;;;12.50;99.90;;;;;;5006568;28;19918;-81
2023/06/05 04:39:15;;;;;;;;;;;12.50;99.90;;;;;;5007706;28;20011;-81
2023/06/05 04:41:44;;;;;;;;;;;12.50;99.90;;;;;;5036886;28;19910;-81
2023/06/05 04:44:16;;;;;;;;;;;12.50;99.90;;;;;;5030813;28;19917;-81
2023/06/05 04:46:43;;;;;;;;;;;12.60;99.90;;;;;;5002607;28;19906;-81
2023/06/05 04:49:12;;;;;;;;;;;12.60;99.90;;;;;;5015579;28;19921;-82
2023/06/05 04:51:38;;;;;;;;;;;12.70;99.90;;;;;;5013823;28;24071;-81
2023/06/05 04:54:05;;;;;;;;;;;12.80;99.90;;;;;;4995535;28;19994;-81
2023/06/05 04:56:32;;;;;;;;;;;12.80;99.90;;;;;;4997605;28;24055;-81
2023/06/05 04:58:59;;;;;;;;;;;12.90;99.90;;;;;;5021139;28;19996;-81
2023/06/05 05:01:25;;;;;;;;;;;12.90;99.90;;;;;;5013476;28;20001;-81
2023/06/05 05:03:51;;;;;;;;;;;12.80;99.90;;;;;;4995503;28;20413;-82
2023/06/05 05:06:17;;;;;;;;;;;12.80;99.90;;;;;;5011918;28;19906;-80
2023/06/05 05:08:45;;;;;;;;;;;12.90;99.90;;;;;;4995722;28;19975;-81
2023/06/05 05:11:10;;;;;;;;;;;12.90;99.90;;;;;;5035845;28;19905;-81
2023/06/05 05:13:36;;;;;;;;;;;13.00;99.90;;;;;;5035043;28;24059;-82
2023/06/05 05:16:02;;;;;;;;;;;13.00;99.90;;;;;;5036361;28;25053;-81
2023/06/05 05:18:28;;;;;;;;;;;13.10;99.90;;;;;;5036115;28;19913;-82
2023/06/05 05:20:53;;;;;;;;;;;13.20;99.90;;;;;;5036350;28;19915;-82
2023/06/05 05:23:20;;;;;;;5.70;3.58;;;13.30;99.90;;;;;;5037930;28;19999;-82
2023/06/05 05:25:46;;;;;;;5.30;3.75;;;13.30;99.90;;;;;;5054170;28;20026;-82
2023/06/05 05:28:12;;;;;;;7.32;4.00;;;13.40;99.90;;;;;;5037606;28;20048;-82
2023/06/05 05:30:38;;;;;;;5.95;3.67;;;13.50;99.90;;;;;;5037151;28;20037;-82
2023/06/05 05:33:04;;;;;;;4.93;3.60;;;13.50;99.90;;;;;;5034857;28;20371;-82
2023/06/05 05:35:30;;;;;;;5.70;3.83;;;13.50;99.90;;;;;;5034550;28;20056;-81
2023/06/05 05:37:56;;;;;;;5.22;3.75;;;13.60;99.90;;;;;;5034217;28;20030;-82
2023/06/05 05:40:22;;;;;;;6.28;4.13;;;13.60;99.90;;;;;;5037499;28;20036;-82
2023/06/05 05:42:48;;;;;;;7.07;4.07;;;13.70;99.90;;;;;;5016390;28;20033;-82
2023/06/05 05:45:13;;;;;;;8.15;4.43;;;13.70;99.90;;;;;;5013154;28;20026;-82
2023/06/05 05:47:40;;;;;;;5.75;3.97;;;13.70;99.90;;;;;;5017816;28;20032;-82
2023/06/05 05:50:06;;;;;;;5.70;3.92;;;13.60;99.90;;;;;;5013425;28;20025;-81
2023/06/05 05:52:32;;;;;;;8.07;3.92;;;13.60;99.90;;;;;;5016141;28;20030;-82
2023/06/05 05:54:59;;;;;;;7.97;4.43;;;13.70;99.90;;;;;;5014830;28;20076;-82
2023/06/05 05:57:25;;;;;;;6.13;4.25;;;13.70;99.90;;;;;;5014464;28;20486;-82
2023/06/05 05:59:51;;;;;;;5.75;3.83;;;13.80;99.90;;;;;;5014636;28;20487;-82
2023/06/05 06:02:17;;;;;;;5.93;3.83;;;13.90;99.90;;;;;;5014947;28;20532;-82
2023/06/05 06:04:46;;;;;;;7.05;4.22;;;14.00;99.90;;;;;;5031377;28;20026;-82
2023/06/05 06:07:12;;;;;;;6.25;3.83;;;14.00;99.90;;;;;;5015818;28;20033;-81
2023/06/05 06:09:38;;;;;;;5.70;3.67;;;14.10;99.90;;;;;;5021621;28;20155;-81
2023/06/05 06:12:05;;;;;;;6.20;4.03;;;14.10;99.90;;;;;;5034229;28;20500;-81
2023/06/05 06:14:34;;;;;;;6.65;4.00;;;14.20;99.90;;;;;;5050567;28;20079;-81
2023/06/05 06:17:02;;;;;;;7.70;4.75;;;14.30;99.90;;;;;;5050869;28;20026;-82
2023/06/05 06:19:28;;;;;;;6.18;4.40;;;14.30;99.90;;;;;;5050658;28;20025;-81
2023/06/05 06:21:55;;;;;;;9.20;4.75;;;14.40;99.90;;;;;;5035388;28;20021;-82
2023/06/05 06:24:21;;;;;;;5.53;4.43;;;14.40;99.90;;;;;;5034908;28;20030;-81
2023/06/05 06:26:48;;;;;;;6.97;4.15;;;14.40;99.90;;;;;;5035159;28;20436;-81
2023/06/05 06:29:25;;;;;;;5.95;4.53;;;14.40;99.90;;;;;;5050431;28;20371;-81
2023/06/05 06:31:50;;;;;;;6.70;4.10;;;14.40;99.90;;;;;;5035028;28;20108;-81
2023/06/05 06:34:16;;;;;;;6.88;5.00;;;14.40;99.90;;;;;;5035309;28;20041;-81
2023/06/05 06:36:43;;;;;;;7.78;4.03;;;14.50;99.90;;;;;;5035169;28;20152;-81
2023/06/05 06:39:12;;;;;;;5.78;4.38;;;14.50;99.90;;;;;;5033986;28;20040;-82
2023/06/05 06:41:38;;;;;;;9.05;4.38;;;14.50;99.90;;;;;;5033923;28;20037;-82
2023/06/05 06:44:05;;;;;;;5.32;4.00;;;14.50;99.90;;;;;;5034041;28;20022;-81
2023/06/05 06:46:31;;;;;;;5.85;3.80;;;14.50;99.90;;;;;;5035211;28;20477;-81
2023/06/05 06:48:57;;;;;;;6.25;4.07;;;14.60;99.90;;;;;;5050610;28;20504;-82
2023/06/05 06:51:23;;;;;;;5.53;3.67;;;14.70;99.90;;;;;;5033304;28;20025;-81
2023/06/05 06:53:49;;;;;;;5.50;3.40;;;14.80;99.90;;;;;;5035069;28;20109;-82
2023/06/05 06:56:17;;;;;;;5.65;3.95;;;14.90;99.90;;;;;;5018072;28;20029;-82
2023/06/05 06:58:46;;;;;;;6.57;4.13;;;15.00;99.90;;;;;;5033935;28;20034;-82
2023/06/05 07:01:14;;;;;;;6.30;4.03;;;15.20;99.90;;;;;;5033785;28;20083;-82
2023/06/05 07:03:40;;;;;;;5.35;3.50;;;15.30;99.90;;;;;;5050298;28;20025;-82
2023/06/05 07:06:06;;;;;;;9.23;4.70;;;15.50;99.90;;;;;;5050231;28;20028;-82
2023/06/05 07:08:32;;;;;;;6.72;4.40;;;15.60;99.90;;;;;;5033758;28;20040;-82
2023/06/05 07:10:58;;;;;;;8.00;5.25;;;15.80;99.90;;;;;;5016675;28;20026;-81
2023/06/05 07:13:24;;;;;;;11.93;5.93;;;15.90;99.90;;;;;;4997600;28;20394;-82
2023/06/05 07:15:50;;;;;;;10.18;6.03;;;16.00;99.90;;;;;;5013928;28;20041;-82
2023/06/05 07:18:17;;;;;;;9.25;6.40;;;16.10;99.90;;;;;;5015444;28;20022;-82
2023/06/05 07:20:43;;;;;;;9.57;6.03;;;16.20;99.90;;;;;;5014356;28;20057;-82
2023/06/05 07:23:09;;;;;;;8.52;5.82;;;16.20;99.90;;;;;;5014720;28;20030;-82
2023/06/05 07:25:35;;;;;;;9.10;6.20;;;16.20;99.90;;;;;;5014658;28;20022;-83
2023/06/05 07:28:00;;;;;;;7.80;5.57;;;16.20;99.90;;;;;;5013913;28;20038;-82
2023/06/05 07:30:28;;;;;;;8.40;5.95;;;16.30;99.90;;;;;;5013776;28;20111;-82
2023/06/05 07:32:54;;;;;;;9.60;6.28;;;16.20;99.90;;;;;;5013884;28;20108;-82
2023/06/05 07:35:20;;;;;;;7.65;5.13;;;16.20;99.90;;;;;;5013627;28;20128;-82
2023/06/05 07:37:46;;;;;;;6.30;4.68;;;16.10;99.90;;;;;;5014824;28;20105;-82
2023/06/05 07:40:12;;;;;;;5.65;4.03;;;16.10;99.90;;;;;;5016677;28;20026;-81
2023/06/05 07:42:38;;;;;;;5.68;3.92;;;16.20;99.90;;;;;;5013616;28;20108;-82
2023/06/05 07:45:04;;;;;;;6.72;5.45;;;16.30;99.90;;;;;;5028645;28;20018;-82
2023/06/05 07:47:29;;;;;;;6.65;4.38;;;16.40;99.90;;;;;;5013644;28;20073;-82
2023/06/05 07:50:04;;;;;;;5.45;3.80;;;16.50;99.90;;;;;;5013423;28;20109;-81
2023/06/05 07:52:30;;;;;;;5.50;3.80;;;16.70;99.90;;;;;;5013760;28;20084;-82
2023/06/05 07:54:57;;;;;;;5.97;4.22;;;16.80;99.90;;;;;;5029685;28;20121;-82
2023/06/05 07:57:27;;;;;;;5.78;4.05;;;16.80;99.90;;;;;;5014527;28;20026;-82
2023/06/05 07:59:53;;;;;;;6.10;4.32;;;17.00;99.90;;;;;;5029819;28;20048;-82
2023/06/05 08:02:19;;;;;;;5.47;3.90;;;17.00;99.90;;;;;;4997274;28;20036;-82
2023/06/05 08:04:45;;;;;;;8.20;4.80;;;17.20;99.90;;;;;;5013324;28;20112;-82
2023/06/05 08:07:11;;;;;;;7.30;4.30;;;17.30;99.90;;;;;;5014792;28;20065;-82
2023/06/05 08:09:37;;;;;;;5.57;3.92;;;17.40;99.90;;;;;;5021810;28;20030;-82
2023/06/05 08:12:06;;;;;;;5.13;3.40;;;17.40;99.90;;;;;;5033270;28;20061;-82
2023/06/05 08:14:34;;;;;;;4.95;3.70;;;17.50;99.90;;;;;;5034566;28;20030;-82
2023/06/05 08:17:00;;;;;;;4.97;3.63;;;17.50;99.90;;;;;;5050001;28;20033;-82
2023/06/05 08:19:26;;;;;;;6.07;3.80;;;17.60;99.90;;;;;;5034055;28;20018;-82
2023/06/05 08:21:56;;;;;;;4.85;3.67;;;17.60;99.90;;;;;;5033227;28;20032;-82
2023/06/05 08:24:22;;;;;;;6.85;4.10;;;17.60;99.90;;;;;;5034375;28;20049;-82
2023/06/05 08:26:48;;;;;;;4.78;3.40;;;17.60;99.90;;;;;;5033093;28;20398;-82
2023/06/05 08:29:13;;;;;;;5.47;3.75;;;17.60;99.90;;;;;;5033065;28;20112;-82
2023/06/05 08:31:39;;;;;;;4.78;3.30;;;17.60;99.90;;;;;;5033158;28;20507;-82
2023/06/05 08:34:05;;;;;;;7.05;4.20;;;17.60;99.90;;;;;;5033915;28;20100;-82
2023/06/05 08:36:32;;;;;;;5.55;4.10;;;17.60;99.90;;;;;;5053108;28;20029;-83
2023/06/05 08:38:58;;;;;;;5.57;4.15;;;17.60;99.90;;;;;;5034937;28;20026;-82
2023/06/05 08:41:25;;;;;;;5.32;3.72;;;17.60;99.90;;;;;;5017749;28;20021;-83
2023/06/05 08:43:51;;;;;;;4.70;3.03;;;17.60;99.90;;;;;;5016583;28;20088;-82
2023/06/05 08:46:17;;;;;;;4.72;3.22;;;17.60;99.90;;;;;;5017197;28;20466;-82
2023/06/05 08:48:45;;;;;;;4.63;3.53;;;17.60;99.90;;;;;;5034070;28;20041;-82
2023/06/05 08:51:14;;;;;;;4.13;3.00;;;17.60;99.90;;;;;;5017477;28;20073;-82
2023/06/05 08:53:42;;;;;;;6.45;3.30;;;17.50;99.90;;;;;;5049405;28;20052;-83
2023/06/05 08:56:08;;;;;;;6.03;3.55;;;17.50;99.90;;;;;;5036134;28;20124;-82
2023/06/05 08:58:37;;;;;;;6.32;4.03;;;17.50;99.90;;;;;;5037378;28;20068;-82
2023/06/05 09:01:03;;;;;;;5.70;3.63;;;17.50;99.90;;;;;;5036865;28;20021;-82
2023/06/05 09:03:29;;;;;;;5.32;4.20;;;17.60;99.90;;;;;;5052471;28;20037;-82
2023/06/05 09:05:55;;;;;;;5.35;4.25;;;17.70;99.90;;;;;;5036230;28;20032;-82
2023/06/05 09:08:32;;;;;;;6.20;4.35;;;17.80;99.90;;;;;;5036006;28;20029;-82
2023/06/05 09:11:23;;;;;;;7.07;4.55;;;17.90;99.90;;;;;;5035643;28;20033;-82
2023/06/05 09:13:49;;;;;;;5.70;3.60;;;18.00;99.90;;;;;;5035607;28;20036;-82
2023/06/05 09:16:18;;;;;;;4.53;3.70;;;18.00;99.90;;;;;;5052157;28;20034;-82
2023/06/05 09:18:57;;;;;;;5.70;4.25;;;18.00;99.90;;;;;;5037194;28;20064;-82
2023/06/05 09:21:28;;;;;;;6.00;4.30;;;18.10;99.90;;;;;;5036658;28;20025;-82
2023/06/05 09:24:14;;;;;;;5.40;3.90;;;18.20;99.90;;;;;;5037165;28;20021;-82
2023/06/05 09:26:56;;;;;;;6.57;3.90;;;18.30;99.90;;;;;;5036942;28;20045;-81
2023/06/05 09:29:30;;;;;;;6.93;4.50;;;18.40;99.90;;;;;;5035909;28;20030;-81
2023/06/05 09:32:01;;;;;;;5.55;3.80;;;18.50;99.90;;;;;;5035360;28;20105;-81
2023/06/05 09:34:27;;;;;;;5.57;3.92;;;18.50;99.90;;;;;;5036239;28;20524;-81
2023/06/05 09:36:54;;;;;;;5.97;3.50;;;18.50;99.90;;;;;;5036178;28;20013;-82
2023/06/05 09:39:21;;;;;;;4.90;2.88;;;18.60;99.90;;;;;;5031364;28;20053;-81
2023/06/05 09:41:49;;;;;;;4.38;3.50;;;18.70;99.90;;;;;;5016341;28;20018;-82
2023/06/05 09:44:15;;;;;;;4.78;3.42;;;18.70;99.90;;;;;;5031645;28;20091;-81
2023/06/05 09:47:02;;;;;;;5.55;3.97;;;18.80;99.90;;;;;;5015999;28;20033;-81
2023/06/05 09:49:49;;;;;;;5.95;3.58;;;18.90;99.90;;;;;;5034014;28;20026;-81
2023/06/05 09:52:15;;;;;;;5.03;3.13;;;18.90;99.90;;;;;;5032392;28;20018;-81
2023/06/05 09:54:45;;;;;;;4.63;3.30;;;18.90;99.90;;;;;;5016472;28;20030;-81
2023/06/05 09:57:13;;;;;;;5.85;2.90;;;19.00;99.90;;;;;;5014923;28;20026;-82
2023/06/05 09:59:51;;;;;;;5.07;3.00;;;19.00;99.90;;;;;;5015145;28;20044;-82
2023/06/05 10:02:20;;;;;;;4.82;3.17;;;19.00;99.90;;;;;;5016552;28;20072;-81
2023/06/05 10:04:51;;;;;;;4.05;3.10;;;19.00;99.90;;;;;;5015306;28;20022;-81
2023/06/05 10:07:17;;;;;;;3.95;2.90;;;19.00;99.90;;;;;;5031640;28;20090;-81
2023/06/05 10:09:44;;;;;;;4.35;3.05;;;19.00;99.90;;;;;;5022669;28;20034;-81
2023/06/05 10:12:10;;;;;;;4.88;3.55;;;19.00;99.90;;;;;;5036172;28;20049;-81
2023/06/05 10:14:40;;;;;;;4.97;3.83;;;19.00;99.90;;;;;;5037454;28;20033;-81
2023/06/05 10:17:06;;;;;;;6.80;3.90;;;19.00;99.90;;;;;;5050765;28;20048;-81
2023/06/05 10:19:32;;;;;;;4.32;3.30;;;19.00;99.90;;;;;;5035219;28;20025;-81
2023/06/05 10:21:59;;;;;;;5.20;3.40;;;18.90;99.90;;;;;;5035285;28;20030;-81
2023/06/05 10:24:27;;;;;;;4.68;3.60;;;18.90;99.90;;;;;;5034316;28;20030;-81
2023/06/05 10:27:11;;;;;;;5.80;3.75;;;18.90;99.90;;;;;;5035319;28;20018;-82
2023/06/05 10:29:39;;;;;;;5.60;3.60;;;19.00;99.90;;;;;;5035543;28;20152;-81
2023/06/05 10:32:34;;;;;;;5.85;4.10;;;19.00;99.90;;;;;;5036368;28;20461;-80
2023/06/05 10:35:36;;;;;;;4.72;3.40;;;19.10;99.90;;;;;;5036526;28;20055;-81
2023/06/05 10:38:17;;;;;;;5.20;3.90;;;19.10;99.90;;;;;;5035550;28;20022;-81
2023/06/05 10:40:52;;;;;;;6.38;4.60;;;19.20;99.90;;;;;;5035389;28;20428;-81
2023/06/05 10:43:31;;;;;;;6.55;3.80;;;19.20;99.90;;;;;;5052136;28;20116;-81
2023/06/05 10:46:02;;;;;;;6.80;3.90;;;19.10;99.90;;;;;;5035168;28;20048;-81
2023/06/05 10:48:46;;;;;;;;;;;19.10;99.90;;;;;;5033841;28;20116;-80
2023/06/05 10:51:30;;;;;;;;;;;19.10;99.90;;;;;;5034435;28;20268;-80
2023/06/05 10:53:56;;;;;;;;;;;19.00;99.90;;;;;;5034490;28;20097;-81
2023/06/05 10:56:40;;;;;;;;;;;18.90;99.90;;;;;;5034160;28;19908;-80
2023/06/05 10:59:13;;;;;;;;;;;18.90;99.90;;;;;;5049009;28;19909;-80
2023/06/05 11:01:38;;;;;;;;;;;18.90;99.90;;;;;;5050777;28;19931;-81
2023/06/05 11:04:04;;;;;;;;;;;18.80;99.90;;;;;;5033847;28;19913;-81
2023/06/05 11:06:30;;;;;;;;;;;18.80;99.90;;;;;;5034561;28;19920;-80
2023/06/05 11:09:12;;;;;;;;;;;18.80;99.90;;;;;;5033843;28;19958;-81
2023/06/05 11:12:01;;;;;;;;;;;18.80;99.90;;;;;;5013548;28;19945;-80
2023/06/05 11:14:43;;;;;;;;;;;18.70;99.90;;;;;;5011424;28;20322;-80
2023/06/05 11:17:27;;;;;;;;;;;18.70;99.90;;;;;;5014977;28;19909;-80
2023/06/05 11:19:53;;;;;;;;;;;18.60;99.90;;;;;;5018843;28;20012;-81
2023/06/05 11:22:18;;;;;;;;;;;18.60;99.90;;;;;;5014162;28;19951;-81
2023/06/05 11:24:44;;;;;;;;;;;18.60;99.90;;;;;;5000469;28;19997;-81
2023/06/05 11:27:29;;;;;;;;;;;18.50;99.90;;;;;;5029271;28;25081;-80
2023/06/05 11:29:55;;;;;;;;;;;18.40;99.90;;;;;;5029465;28;20274;-80
2023/06/05 11:32:25;;;;;;;;;;;18.40;99.90;;;;;;5029830;28;19905;-82
2023/06/05 11:34:52;;;;;;;;;;;18.40;99.90;;;;;;5014482;28;20039;-81
2023/06/05 11:37:18;;;;;;;;;;;18.40;99.90;;;;;;5029490;28;19959;-81
2023/06/05 11:39:43;;;;;;;;;;;18.50;99.90;;;;;;5022249;28;19905;-81
2023/06/05 11:42:09;;;;;;;;;;;18.60;99.90;;;;;;5032602;28;20054;-80
2023/06/05 11:44:35;;;;;;;;;;;18.60;99.90;;;;;;5024349;28;20060;-81
2023/06/05 11:47:01;;;;;;;;;;;18.70;99.90;;;;;;5014548;28;20380;-81
2023/06/05 11:49:28;;;;;;;;;;;18.80;99.90;;;;;;5013612;28;19906;-81
2023/06/05 11:51:54;;;;;;;;;;;18.80;99.90;;;;;;5007990;28;20042;-81
2023/06/05 11:54:27;;;;;;;;;;;18.80;99.90;;;;;;5010677;28;20069;-81
2023/06/05 11:56:56;;;;;;;;;;;18.80;99.90;;;;;;5001335;28;19910;-81
2023/06/05 11:59:23;;;;;;;;;;;18.80;99.90;;;;;;5009242;28;19949;-80
2023/06/05 12:01:50;;;;;;;;;;;18.80;99.90;;;;;;4993153;28;19941;-81
2023/06/05 12:04:15;;;;;;;;;;;18.80;99.90;;;;;;4993332;28;19910;-79
2023/06/05 12:06:42;;;;;;;;;;;18.70;99.90;;;;;;5009746;28;20317;-81
2023/06/05 12:09:11;;;;;;;;;;;18.60;99.90;;;;;;4999865;28;20053;-81
2023/06/05 12:11:37;;;;;;;;;;;18.50;99.90;;;;;;5026688;28;20020;-81
2023/06/05 12:14:03;;;;;;;;;;;18.50;99.90;;;;;;5013231;28;20366;-81
2023/06/05 12:16:33;;;;;;;;;;;18.40;99.90;;;;;;5013119;28;20046;-81
2023/06/05 12:18:59;;;;;;;;;;;18.40;99.90;;;;;;5005139;28;19914;-82
2023/06/05 12:21:25;;;;;;;;;;;18.20;99.90;;;;;;5010507;28;19917;-82
2023/06/05 12:23:52;;;;;;;;;;;18.10;99.90;;;;;;5017821;28;19906;-81
2023/06/05 12:26:17;;;;;;;;;;;17.90;99.90;;;;;;5015472;28;20273;-81
2023/06/05 12:28:44;;;;;;;;;;;17.80;99.90;;;;;;5004177;28;20059;-81
2023/06/05 12:31:28;;;;;;;;;;;17.70;99.90;;;;;;5009979;28;19920;-81
2023/06/05 12:33:54;;;;;;;;;;;17.60;99.90;;;;;;5017598;28;19996;-81
2023/06/05 12:36:20;;;;;;;;;;;17.50;99.90;;;;;;5007651;28;20119;-81
2023/06/05 12:38:46;;;;;;;;;;;17.40;99.90;;;;;;5015186;28;19913;-80
2023/06/05 12:41:11;;;;;;;;;;;17.40;99.90;;;;;;5034001;28;20384;-81
2023/06/05 12:43:37;;;;;;;;;;;17.40;99.90;;;;;;5034928;28;20042;-81
2023/06/05 12:46:03;;;;;;;;;;;17.50;99.90;;;;;;5051747;28;20035;-81
2023/06/05 12:48:28;;;;;;;;;;;17.60;99.90;;;;;;5050415;28;19909;-81
2023/06/05 12:50:55;;;;;;;;;;;17.60;99.90;;;;;;5034793;28;20057;-81
2023/06/05 12:53:21;;;;;;;;;;;17.60;99.90;;;;;;5036566;28;20112;-82
2023/06/05 12:55:46;;;;;;;;;;;17.50;99.90;;;;;;5035424;28;20460;-81
2023/06/05 12:58:12;;;;;;;;;;;17.50;99.90;;;;;;5035247;28;19935;-81
2023/06/05 13:00:38;;;;;;;;;;;17.50;99.90;;;;;;5035833;28;20392;-81
2023/06/05 13:03:04;;;;;;;;;;;17.50;99.90;;;;;;5037114;28;20028;-82
2023/06/05 13:05:31;;;;;;;;;;;17.50;99.90;;;;;;5035035;28;20115;-82
2023/06/05 13:08:00;;;;;;;;;;;17.50;99.90;;;;;;5050121;28;20133;-81
2023/06/05 13:10:26;;;;;;;;;;;17.40;99.90;;;;;;5021332;28;20487;-82
2023/06/05 13:12:51;;;;;;;;;;;17.30;99.90;;;;;;5015155;28;20025;-82
2023/06/05 13:15:17;;;;;;;;;;;17.30;99.90;;;;;;5013704;28;20093;-82
2023/06/05 13:17:43;;;;;;;;;;;17.30;99.90;;;;;;5015213;28;20342;-82
2023/06/05 13:20:10;;;;;;;;;;;17.30;99.90;;;;;;5014361;28;20034;-82
2023/06/05 13:22:36;;;;;;;;;;;17.30;99.90;;;;;;5014850;28;20478;-82
2023/06/05 13:25:02;;;;;;;;;;;17.40;99.90;;;;;;5014655;28;20273;-82
2023/06/05 13:27:28;;;;;;;;;;;17.40;99.90;;;;;;4997490;28;20038;-82
2023/06/05 13:29:53;;;;;;;;;;;17.50;99.90;;;;;;5004563;28;19985;-82
2023/06/05 13:32:19;;;;;;;;;;;17.60;99.90;;;;;;4994821;28;20033;-83
2023/06/05 13:34:46;;;;;;;;;;;17.60;99.90;;;;;;4998144;28;20088;-82
2023/06/05 13:37:11;;;;;;;;;;;17.70;99.90;;;;;;5011096;28;19972;-82
2023/06/05 13:39:37;;;;;;;;;;;17.60;99.90;;;;;;5025105;28;20491;-83
2023/06/05 13:42:03;;;;;;;;;;;17.60;99.90;;;;;;5035404;28;19912;-83